Pagrindinis puslapis
METAR-TAF:

METAR-TAF

Oro uostai :

Kylis, Vokietija

platuma: 54-23N, ilguma: 010-10E, Aukštis: 31 m

Dabartinis oras

Ataskaita buvo paskelbta 30 minutes, ne 20:50 UTC
Vėjas 9 kt iš Pietų, svyruoja nuo Pietų/Pietryčių ir Pietų/Pietvakarių
Temperatūra 9°C
Drėgmė 87%
Slėgis 1002 hPa
Matomumas 10 km arba daugiau

METAR: EDHK 272050Z AUTO 18009KT 150V210 9999 // FEW092/// SCT150/// OVC210/// 09/07 Q1002

Laikas: 22:20 (21:20 UTC)

Prognozė

Ataskaita buvo paskelbta 7 valandos ir 20 minutes, ne 14:00 UTC
Prognozė galioja nuo 27 metu 15 UTC su 27 metu 19 UTC
Vėjas 13 kt iš Pietvakarių su gūsio iki 23 kt
Matomumas 10 km arba daugiau
Išsisklaidę debesys ne aukštis 2500 ft
Tapsmas
nuo 27 metu 15 UTC su 27 metu 16 UTC
Vėjas 8 kt iš Pietų

TAF: EDHK 271400Z 2715/2719 22013G23KT 9999 SCT025 BECMG 2715/2716 19008KT

Orai ataskaitas ir orų prognozės (METAR, TAF).

turimą stotys yra geltonos ir raudonos taškus žemėlapyje.

Perkelti pele per norėdami pamatyti stoties vardą.

Tada spustelėkite, norėdami matyti oro stebėjimo ir prognozės.

Norėdami pakeisti žemėlapį: spustelėkite ant žalios mygtukų su juodo kryžiaus žemyn,; žalią mygtuką su brūkšneliu, jei norite nutolinti; arba žalių rodyklių gretimoms žemėlapius.


METAR-TAF: